Sao Jorge, Brazil
Current Conditions -  °F | °C
As of 4:00 PM on Friday 19 Dec 2014 (Local Time) from SBPF Reporting Station
Broken Clouds Broken Clouds  
Wind Chill: 84°   Ceiling: 4500
Heat Index: 86°   Visibility: 6mi
Dew Point: 64°   Wind: 14mph
Humidity: 51%   Direction: 270°W
Pressure: 29.8"   Gusts: NA
Location:  28.5°S, 51.7°W
Report Text: SBPF 191800Z 27012KT 9999 BKN045 29/18 Q1009
Loading
Personal Weather Stations






























Interactive Weather Map New forecast layout! Learn more

10-Day Weather Forecast

Advertisements
Track Severe Weather on mobile